createdAt,value
2017-07-08T00:01:51.711Z,14.25
2017-07-08T00:04:20.317Z,15.20
2017-07-08T00:06:49.217Z,13.20
2017-07-08T00:09:18.122Z,10.60
2017-07-08T00:11:46.995Z,9.82
2017-07-08T00:14:16.654Z,9.27
2017-07-08T00:16:45.550Z,14.23
2017-07-08T00:19:14.441Z,13.13
2017-07-08T00:21:43.328Z,9.00
2017-07-08T00:24:12.200Z,9.57
2017-07-08T00:26:41.090Z,9.38
2017-07-08T00:29:09.981Z,12.35
2017-07-08T00:31:38.861Z,8.18
2017-07-08T00:34:07.750Z,10.57
2017-07-08T00:36:36.641Z,11.10
2017-07-08T00:39:05.207Z,15.90
2017-07-08T00:41:34.100Z,11.25
2017-07-08T00:44:03.007Z,10.63
2017-07-08T00:46:31.620Z,11.40
2017-07-08T00:49:00.521Z,12.43
2017-07-08T00:51:29.439Z,12.07
2017-07-08T00:53:58.333Z,11.68
2017-07-08T00:56:27.984Z,10.93
2017-07-08T00:58:56.886Z,10.68
2017-07-08T01:01:25.781Z,13.80
2017-07-08T01:03:54.678Z,10.50
2017-07-08T01:06:23.579Z,11.38
2017-07-08T01:08:52.488Z,14.55
2017-07-08T01:11:21.380Z,11.45
2017-07-08T01:13:50.281Z,10.25
2017-07-08T01:16:19.191Z,11.07
2017-07-08T01:18:48.073Z,9.85
2017-07-08T01:21:16.927Z,10.95
2017-07-08T01:23:45.783Z,12.68
2017-07-08T01:26:14.668Z,9.75
2017-07-08T01:28:43.553Z,13.77
2017-07-08T01:31:12.104Z,10.45
2017-07-08T01:33:40.993Z,10.02
2017-07-08T01:36:09.877Z,8.75
2017-07-08T01:38:38.766Z,9.88
2017-07-08T01:41:07.656Z,11.30
2017-07-08T01:43:36.565Z,10.20
2017-07-08T01:46:05.458Z,9.93
2017-07-08T01:48:34.357Z,10.18
2017-07-08T01:51:03.232Z,9.18
2017-07-08T01:53:32.117Z,11.45
2017-07-08T01:56:00.322Z,11.02
2017-07-08T01:58:29.222Z,14.02
2017-07-08T02:00:58.879Z,9.38
2017-07-08T02:03:27.785Z,11.55
2017-07-08T02:05:56.686Z,11.55
2017-07-08T02:08:25.571Z,11.40
2017-07-08T02:10:54.460Z,8.88
2017-07-08T02:13:23.327Z,9.48
2017-07-08T02:15:52.174Z,9.60
2017-07-08T02:18:21.083Z,10.32
2017-07-08T02:20:49.968Z,9.45
2017-07-08T02:23:18.857Z,9.73
2017-07-08T02:25:48.517Z,10.05
2017-07-08T02:28:17.372Z,11.30
2017-07-08T02:30:46.231Z,11.05
2017-07-08T02:33:15.905Z,11.57
2017-07-08T02:35:44.798Z,10.45
2017-07-08T02:38:13.705Z,13.75
2017-07-08T02:40:42.622Z,12.75
2017-07-08T02:43:11.181Z,15.35
2017-07-08T02:45:40.086Z,14.13
2017-07-08T02:48:08.977Z,14.10
2017-07-08T02:50:38.616Z,13.95
2017-07-08T02:53:07.516Z,12.57
2017-07-08T02:55:36.421Z,13.75
2017-07-08T02:58:05.319Z,12.20
2017-07-08T03:00:34.229Z,12.43
2017-07-08T03:03:02.428Z,13.23
2017-07-08T03:05:31.312Z,13.13
2017-07-08T03:08:00.217Z,12.90
2017-07-08T03:10:29.120Z,13.35
2017-07-08T03:12:58.021Z,12.00
2017-07-08T03:15:26.916Z,13.82
2017-07-08T03:17:55.918Z,15.20
2017-07-08T03:20:24.786Z,14.40
2017-07-08T03:22:54.444Z,15.85
2017-07-08T03:25:23.340Z,15.30
2017-07-08T03:27:52.255Z,14.85
2017-07-08T03:30:21.147Z,17.58
2017-07-08T03:32:50.035Z,16.12
2017-07-08T03:35:18.244Z,18.20
2017-07-08T03:37:47.152Z,14.30
2017-07-08T03:40:16.045Z,17.60
2017-07-08T03:42:44.904Z,16.67
2017-07-08T03:45:13.809Z,15.50
2017-07-08T03:47:42.026Z,19.15
2017-07-08T03:50:10.938Z,17.42
2017-07-08T03:52:39.839Z,15.60
2017-07-08T03:55:08.071Z,16.60
2017-07-08T03:57:36.982Z,17.35
2017-07-08T04:00:05.873Z,16.02
2017-07-08T04:02:34.764Z,16.67
2017-07-08T04:05:03.652Z,19.17
2017-07-08T04:07:32.540Z,17.35
2017-07-08T04:10:01.434Z,20.02
2017-07-08T04:12:30.324Z,18.77
2017-07-08T04:14:59.213Z,18.30
2017-07-08T04:17:28.117Z,17.80
2017-07-08T04:19:56.979Z,21.92
2017-07-08T04:22:25.852Z,21.87
2017-07-08T04:24:54.752Z,16.77
2017-07-08T04:27:23.657Z,21.27
2017-07-08T04:29:53.189Z,21.33
2017-07-08T04:32:22.080Z,17.35
2017-07-08T04:34:50.985Z,19.42
2017-07-08T04:37:19.876Z,19.42
2017-07-08T04:39:48.773Z,16.67
2017-07-08T04:42:17.665Z,18.25
2017-07-08T04:44:46.570Z,18.40
2017-07-08T04:47:15.429Z,21.27
2017-07-08T04:49:43.636Z,21.65
2017-07-08T04:52:12.524Z,20.60
2017-07-08T04:54:41.412Z,19.58
2017-07-08T04:57:10.305Z,21.98
2017-07-08T04:59:39.196Z,21.67
2017-07-08T05:02:08.096Z,23.10
2017-07-08T05:04:36.996Z,22.75
2017-07-08T05:07:05.936Z,20.42
2017-07-08T05:09:34.829Z,22.37
2017-07-08T05:12:03.750Z,31.02
2017-07-08T05:14:32.637Z,20.83
2017-07-08T05:17:01.607Z,21.75
2017-07-08T05:19:30.492Z,21.67
2017-07-08T05:21:59.383Z,22.87
2017-07-08T05:24:28.275Z,20.40
2017-07-08T05:26:58.615Z,23.58
2017-07-08T05:29:27.520Z,20.23
2017-07-08T05:31:56.433Z,26.35
2017-07-08T05:34:25.320Z,24.40
2017-07-08T05:36:54.216Z,31.58
2017-07-08T05:39:23.089Z,24.40
2017-07-08T05:41:51.985Z,23.12
2017-07-08T05:44:21.372Z,25.70
2017-07-08T05:46:51.208Z,23.87
2017-07-08T05:49:20.104Z,25.37
2017-07-08T07:12:50.110Z,16.27
2017-07-08T07:15:19.789Z,16.67
2017-07-08T07:17:48.684Z,19.77
2017-07-08T07:20:16.897Z,19.10
2017-07-08T07:22:46.681Z,15.85
2017-07-08T07:25:15.577Z,16.27
2017-07-08T07:27:44.697Z,17.50
2017-07-08T07:30:13.610Z,15.07
2017-07-08T07:32:42.528Z,15.40
2017-07-08T07:35:11.425Z,15.55
2017-07-08T07:37:40.332Z,14.45
2017-07-08T07:40:09.238Z,15.75
2017-07-08T07:42:38.136Z,18.85
2017-07-08T07:45:07.028Z,15.07
2017-07-08T07:47:35.934Z,15.10
2017-07-08T07:50:05.621Z,15.20
2017-07-08T07:52:34.816Z,18.73
2017-07-08T07:55:03.704Z,19.52
2017-07-08T07:57:31.934Z,15.57
2017-07-08T08:00:00.827Z,18.12
2017-07-08T08:02:29.719Z,18.30
2017-07-08T08:04:58.622Z,16.80
2017-07-08T08:07:27.528Z,19.98
2017-07-08T08:09:56.437Z,17.90
2017-07-08T08:12:25.452Z,17.50
2017-07-08T08:14:54.355Z,20.37
2017-07-08T08:17:25.357Z,18.45
2017-07-08T08:19:54.257Z,17.10
2017-07-08T08:22:23.151Z,24.42
2017-07-08T08:24:51.705Z,19.27
2017-07-08T08:27:20.566Z,18.60
2017-07-08T08:29:52.180Z,22.65
2017-07-08T08:32:21.076Z,18.35
2017-07-08T08:34:51.552Z,18.90
2017-07-08T08:37:20.463Z,17.55
2017-07-08T08:39:49.381Z,16.30
2017-07-08T08:42:19.780Z,15.60
2017-07-08T08:44:48.691Z,16.73
2017-07-08T08:47:17.784Z,19.25
2017-07-08T08:49:46.688Z,18.30
2017-07-08T08:52:15.554Z,21.08
2017-07-08T08:54:44.455Z,17.48
2017-07-08T08:57:13.333Z,20.12
2017-07-08T08:59:42.240Z,16.15
2017-07-08T09:02:11.150Z,18.58
2017-07-08T09:04:40.049Z,19.42
2017-07-08T09:07:08.910Z,19.67
2017-07-08T09:09:37.894Z,19.33
2017-07-08T09:12:06.798Z,16.65
2017-07-08T09:14:35.684Z,18.60
2017-07-08T09:17:04.572Z,19.67
2017-07-08T09:19:33.187Z,18.03
2017-07-08T09:22:02.090Z,19.60
2017-07-08T09:24:30.980Z,22.25
2017-07-08T09:26:59.839Z,18.60
2017-07-08T09:29:29.681Z,19.37
2017-07-08T09:31:58.601Z,18.45
2017-07-08T09:34:28.272Z,17.87
2017-07-08T09:36:57.173Z,16.83
2017-07-08T09:39:26.092Z,20.42
2017-07-08T09:41:55.757Z,17.73
2017-07-08T09:44:24.657Z,16.10
2017-07-08T09:46:53.561Z,16.67
2017-07-08T09:49:22.658Z,15.50
2017-07-08T09:51:51.571Z,16.02
2017-07-08T09:54:20.905Z,14.20
2017-07-08T09:56:49.823Z,14.73
2017-07-08T09:59:18.738Z,13.90
2017-07-08T10:01:47.645Z,15.45
2017-07-08T10:04:17.982Z,12.40
2017-07-08T10:06:47.658Z,11.90
2017-07-08T10:09:17.072Z,12.77
2017-07-08T10:11:45.984Z,15.75
2017-07-08T10:14:15.645Z,15.13
2017-07-08T10:16:44.562Z,11.30
2017-07-08T10:19:13.471Z,14.60
2017-07-08T10:21:43.137Z,13.57
2017-07-08T10:24:12.020Z,11.63
2017-07-08T10:26:40.909Z,13.40
2017-07-08T10:29:09.859Z,11.43
2017-07-08T10:31:39.525Z,10.98
2017-07-08T10:34:08.416Z,10.90
2017-07-08T10:36:37.307Z,10.98
2017-07-08T10:39:06.290Z,11.18
2017-07-08T10:41:35.198Z,15.93
2017-07-08T10:44:04.149Z,14.60
2017-07-08T10:46:33.048Z,13.52
2017-07-08T10:49:01.944Z,12.13
2017-07-08T11:38:08.623Z,10.48
2017-07-08T11:40:37.510Z,9.88
2017-07-08T11:43:07.188Z,9.60
2017-07-08T11:45:36.778Z,8.57
2017-07-08T11:48:05.670Z,8.45
2017-07-08T11:50:35.421Z,7.53
2017-07-08T11:53:04.125Z,6.93
2017-07-08T11:55:33.783Z,7.00
2017-07-08T11:58:02.670Z,7.70
2017-07-08T12:00:31.285Z,7.60
2017-07-08T12:03:00.145Z,6.35
2017-07-08T12:05:29.029Z,9.13
2017-07-08T12:07:57.916Z,6.85
2017-07-08T12:10:26.814Z,6.72
2017-07-08T12:12:55.697Z,8.00
2017-07-08T12:15:24.588Z,6.70
2017-07-08T12:17:53.470Z,9.02
2017-07-08T12:20:23.114Z,6.90
2017-07-08T12:22:52.010Z,8.38
2017-07-08T12:25:20.884Z,7.90
2017-07-08T12:27:49.740Z,6.82
2017-07-08T12:30:19.399Z,7.72
2017-07-08T12:32:48.313Z,13.38
2017-07-08T12:35:17.223Z,10.68
2017-07-08T12:37:46.110Z,8.38
2017-07-08T12:40:16.518Z,6.80
2017-07-08T12:42:45.417Z,7.87
2017-07-08T12:45:14.045Z,7.63
2017-07-08T12:47:43.670Z,8.10
2017-07-08T12:50:12.261Z,8.00
2017-07-08T12:52:40.886Z,7.50
2017-07-08T12:55:10.270Z,7.87
2017-07-08T12:57:39.152Z,8.55
2017-07-08T13:00:08.041Z,7.40
2017-07-08T13:02:36.674Z,12.47
2017-07-08T13:05:05.288Z,8.00
2017-07-08T13:07:33.920Z,8.90
2017-07-08T13:10:04.304Z,8.07
2017-07-08T13:12:32.954Z,7.77
2017-07-08T13:15:01.565Z,8.53
2017-07-08T13:17:31.053Z,8.93
2017-07-08T13:19:59.655Z,7.83
2017-07-08T13:22:28.286Z,10.23
2017-07-08T13:24:57.870Z,8.33
2017-07-08T13:27:26.498Z,8.40
2017-07-08T13:30:20.800Z,12.00
2017-07-08T13:32:49.438Z,14.93
2017-07-08T13:38:16.063Z,8.07
2017-07-08T13:40:44.671Z,6.70
2017-07-08T13:43:13.574Z,8.00
2017-07-08T13:45:42.781Z,6.63
2017-07-08T15:13:11.235Z,7.60
2017-07-08T15:15:39.923Z,9.93
2017-07-08T15:18:09.222Z,8.70
2017-07-08T15:20:37.847Z,9.23
2017-07-08T15:23:07.239Z,8.83
2017-07-08T15:25:35.866Z,8.13
2017-07-08T15:28:04.459Z,8.67
2017-07-08T15:30:33.103Z,8.93
2017-07-08T15:33:01.741Z,11.73
2017-07-08T15:35:30.358Z,8.17
2017-07-08T15:37:58.942Z,8.00
2017-07-08T15:40:27.596Z,9.53
2017-07-08T15:42:56.225Z,8.00
2017-07-08T15:45:24.845Z,9.50
2017-07-08T15:47:53.518Z,8.03
2017-07-08T15:50:22.910Z,8.37
2017-07-08T15:52:52.310Z,10.63
2017-07-08T15:55:21.663Z,7.60
2017-07-08T15:57:50.287Z,9.40
2017-07-08T16:00:18.547Z,9.57
2017-07-08T16:02:47.173Z,11.90
2017-07-08T16:05:15.792Z,8.60
2017-07-08T16:07:44.381Z,6.50
2017-07-08T16:10:13.005Z,7.23
2017-07-08T16:12:41.630Z,7.37
2017-07-08T16:15:10.278Z,6.90
2017-07-08T16:17:38.893Z,6.93
2017-07-08T16:20:07.530Z,7.53
2017-07-08T16:22:36.173Z,7.60
2017-07-08T16:25:04.805Z,8.93
2017-07-08T16:27:33.427Z,7.43
2017-07-08T16:30:02.833Z,7.33
2017-07-08T16:32:31.451Z,9.20
2017-07-08T16:35:00.091Z,11.13
2017-07-08T16:37:29.496Z,7.63
2017-07-08T16:39:58.905Z,7.03
2017-07-08T16:42:28.974Z,7.87
2017-07-08T16:44:57.459Z,7.03
2017-07-08T16:47:26.093Z,5.97
2017-07-08T16:49:54.708Z,7.70
2017-07-08T16:52:23.328Z,9.80
2017-07-08T16:54:51.945Z,6.73
2017-07-08T16:57:20.591Z,7.27
2017-07-08T16:59:49.238Z,6.87
2017-07-08T17:02:17.855Z,7.67
2017-07-08T17:04:47.492Z,6.40
2017-07-08T17:07:16.109Z,6.40
2017-07-08T17:09:44.736Z,7.43
2017-07-08T17:12:13.363Z,6.93
2017-07-08T17:17:33.224Z,6.70
2017-07-08T17:20:07.314Z,5.70
2017-07-08T17:22:36.297Z,7.23
2017-07-08T17:25:06.881Z,5.47
2017-07-08T17:30:31.127Z,5.70
2017-07-08T17:35:59.879Z,6.90
2017-07-08T17:38:28.514Z,6.03
2017-07-08T17:40:57.889Z,5.60
2017-07-08T17:43:35.154Z,5.50
2017-07-08T17:46:07.950Z,5.73
2017-07-08T17:48:40.012Z,5.35
2017-07-08T17:51:08.897Z,7.03
2017-07-08T17:53:37.818Z,6.30
2017-07-08T17:56:10.380Z,5.47
2017-07-08T17:58:44.612Z,7.13
2017-07-08T18:04:31.989Z,5.80
2017-07-08T18:07:00.628Z,8.93
2017-07-08T18:09:30.430Z,6.57
2017-07-08T18:11:59.067Z,7.03
2017-07-08T18:17:04.269Z,6.60
2017-07-08T18:19:32.949Z,6.07
2017-07-08T18:22:02.596Z,7.15
2017-07-08T18:24:31.217Z,13.07
2017-07-08T18:27:00.110Z,8.07
2017-07-08T18:29:29.000Z,6.43
2017-07-08T18:31:57.935Z,11.82
2017-07-08T18:34:28.869Z,6.68
2017-07-08T18:36:58.026Z,6.47
2017-07-08T18:39:26.918Z,6.95
2017-07-08T18:41:55.811Z,6.95
2017-07-08T18:44:24.708Z,6.35
2017-07-08T18:46:53.590Z,6.20
2017-07-08T18:49:22.486Z,9.93
2017-07-08T18:51:51.404Z,7.00
2017-07-08T18:54:22.760Z,7.25
2017-07-08T18:56:52.033Z,6.85
2017-07-08T18:59:21.995Z,6.10
2017-07-08T19:01:50.587Z,6.57
2017-07-08T19:04:21.528Z,8.77
2017-07-08T19:06:54.003Z,8.40
2017-07-08T19:09:24.842Z,7.03
2017-07-08T19:11:54.026Z,8.00
2017-07-08T19:14:22.912Z,7.03
2017-07-08T19:16:52.217Z,6.28
2017-07-08T19:19:21.118Z,6.57
2017-07-08T19:21:50.663Z,6.37
2017-07-08T19:24:19.549Z,6.40
2017-07-08T19:26:48.445Z,7.22
2017-07-08T19:29:17.308Z,7.15
2017-07-08T19:31:46.189Z,8.70
2017-07-08T19:34:15.078Z,7.20
2017-07-08T19:36:43.982Z,11.95
2017-07-08T19:39:13.746Z,9.32
2017-07-08T19:41:43.434Z,7.15
2017-07-08T19:44:12.324Z,8.30
2017-07-08T19:46:41.208Z,7.78
2017-07-08T19:49:10.107Z,8.50
2017-07-08T19:51:39.006Z,10.85
2017-07-08T19:54:07.916Z,8.07
2017-07-08T19:56:36.804Z,7.43
2017-07-08T19:59:05.740Z,9.48
2017-07-08T20:01:34.627Z,9.95
2017-07-08T20:04:03.529Z,9.38
2017-07-08T20:06:32.410Z,8.40
2017-07-08T20:09:01.294Z,7.93
2017-07-08T20:11:30.177Z,7.93
2017-07-08T20:13:59.065Z,9.10
2017-07-08T20:16:27.953Z,7.85
2017-07-08T20:18:58.292Z,8.15
2017-07-08T20:21:27.198Z,9.77
2017-07-08T20:23:56.588Z,11.25
2017-07-08T20:26:26.250Z,9.05
2017-07-08T20:28:58.123Z,9.07
2017-07-08T20:31:27.026Z,13.43
2017-07-08T20:33:55.918Z,9.40
2017-07-08T20:36:24.817Z,15.73
2017-07-08T20:38:54.502Z,15.93
2017-07-08T20:41:24.082Z,10.57
2017-07-08T20:43:53.054Z,11.70
2017-07-08T20:46:21.947Z,9.45
2017-07-08T20:48:50.875Z,12.05
2017-07-08T20:51:19.749Z,12.07
2017-07-08T20:53:48.635Z,9.70
2017-07-08T20:56:17.533Z,11.05
2017-07-08T20:58:46.393Z,9.05
2017-07-08T21:01:15.280Z,10.88
2017-07-08T21:03:44.294Z,12.60
2017-07-08T21:06:13.228Z,12.07
2017-07-08T21:08:42.140Z,11.95
2017-07-08T21:11:11.054Z,14.50
2017-07-08T21:13:40.925Z,13.35
2017-07-08T21:16:09.834Z,13.65
2017-07-08T21:18:39.469Z,11.95
2017-07-08T21:21:08.360Z,12.73
2017-07-08T21:23:37.218Z,13.45
2017-07-08T21:26:06.114Z,13.48
2017-07-08T21:28:35.775Z,11.95
2017-07-08T21:31:04.665Z,11.43
2017-07-08T21:33:33.535Z,13.85
2017-07-08T21:36:02.407Z,14.10
2017-07-08T21:38:32.079Z,12.15
2017-07-08T21:41:00.980Z,14.07
2017-07-08T21:43:29.886Z,14.70
2017-07-08T21:45:58.755Z,13.50
2017-07-08T21:48:27.667Z,13.43
2017-07-08T21:50:57.341Z,14.60
2017-07-08T21:53:26.233Z,15.10
2017-07-08T21:55:55.120Z,15.88
2017-07-08T21:58:24.933Z,14.50
2017-07-08T22:00:53.841Z,17.23
2017-07-08T22:03:22.712Z,21.40
2017-07-08T22:05:51.617Z,17.17
2017-07-08T22:08:20.533Z,18.90
2017-07-08T22:10:49.430Z,25.85
2017-07-08T22:13:18.312Z,18.67
2017-07-08T22:15:47.212Z,17.33
2017-07-08T22:18:16.115Z,19.00
2017-07-08T22:20:45.017Z,24.95
2017-07-08T22:23:14.665Z,19.62
2017-07-08T22:25:43.526Z,18.42
2017-07-08T22:28:13.157Z,17.90
2017-07-08T22:30:42.056Z,19.05
2017-07-08T22:33:11.049Z,21.08
2017-07-08T22:35:39.946Z,21.80
2017-07-08T22:38:08.846Z,17.90
2017-07-08T22:40:37.742Z,20.02
2017-07-08T22:43:06.642Z,19.25
2017-07-08T22:45:35.550Z,18.52
2017-07-08T22:48:04.453Z,27.23
2017-07-08T22:50:33.356Z,20.12
2017-07-08T22:53:02.989Z,18.95
2017-07-08T22:55:32.644Z,20.52
2017-07-08T22:58:01.537Z,22.30
2017-07-08T23:00:30.433Z,19.25
2017-07-08T23:02:59.320Z,20.52
2017-07-08T23:05:28.221Z,19.00
2017-07-08T23:07:57.152Z,19.85
2017-07-08T23:10:26.052Z,20.37
2017-07-08T23:12:54.950Z,20.92
2017-07-08T23:15:23.813Z,20.52
2017-07-08T23:17:53.431Z,21.62
2017-07-08T23:20:23.071Z,20.95
2017-07-08T23:22:51.960Z,21.25
2017-07-08T23:25:20.854Z,21.08
2017-07-08T23:27:49.758Z,25.70
2017-07-08T23:30:18.656Z,21.48
2017-07-08T23:32:47.549Z,20.88
2017-07-08T23:35:16.450Z,20.65
2017-07-08T23:37:45.345Z,22.35
2017-07-08T23:40:14.243Z,21.80
2017-07-08T23:42:43.143Z,21.52
2017-07-08T23:45:12.017Z,22.00
2017-07-08T23:47:40.915Z,25.12
2017-07-08T23:50:09.833Z,25.90
2017-07-08T23:52:39.490Z,20.67
2017-07-08T23:55:08.382Z,21.35
2017-07-08T23:57:37.875Z,21.48
